Alpine, NY (14805)

7:00 PM EST on March 04, 2015 (GMT -0500)
Upstate newyork | Change Station
CLOSE
Current Station
Personal Weather Station
Location: Odessa, NY
Elevation: 1063 ft
Nearby Weather Stations

Elev 1063 ft 42.34 °N, 76.79 °W | Updated 6 minutes ago

Partly Cloudy
Partly Cloudy
34.9 °F
Feels Like 30 °F
N
5.0
Wind Variable Wind from North
Gusts 9.0 mph

Today
High -- | Low -- °F
--% Chance of Precip.
Yesterday
High -- | Low -- °F
Precip. -- in
6:37 AM 6:00 PM
Waxing Gibbous, 99% visible
Pressure 29.90 in
Visibility 10.0 miles
Clouds Mostly Cloudy 3700 ft
Windchill 30 °F
Dew Point 26 °F
Humidity 71%
Rainfall 0.11 in
Snow Depth Not available.
UV 0.0 out of 12
Pollen .40 out of 12
Air Quality Not available.
Flu Activity Not available.
METAR KELM 042353Z 31006KT 10SM BKN037 03/M04 A2988 RMK AO2 SLP125 T00331039 10050 20033 53020

More Conditions Fewer Conditions

Pressure 29.90 in
Visibility 10.0 miles
Clouds Mostly Cloudy 3700 ft
Windchill 30 °F
Dew Point 26 °F
Humidity 71%
Rainfall 0.11 in
Snow Depth Not available.
UV 0.0 out of 12
Pollen .40 out of 12
Air Quality Not available.
Flu Activity Not available.
METAR KELM 042353Z 31006KT 10SM BKN037 03/M04 A2988 RMK AO2 SLP125 T00331039 10050 20033 53020

More Conditions Fewer Conditions

10-Day Weather Forecast

Almanac

Astronomy

Mar. 04, 2015 Rise Set
Actual Time
Civil Twilight
Nautical Twilight
Astronomical Twilight
Moon
Length of Visible Light
Length of Day
Tomorrow will be .
, % of the Moon is Illuminated

Today's Extremes

State Highs State Lows

Community

WunderPhotos

Upload Photos

1,802,605 photos uploaded!

WunderBlogs® & News

Nearby

Air Quality

  Air Quality AQ Index Pollutant
Not available.

Snow Depth

Station Depth Elevation

Earthquake Activity

City Distance Mag. Time & Date
Minimum magnitude displayed is 2.5.

Coastal Water Temperatures

Place Temperature

Nearby Weather Stations